sensor_id;sensor_type;location;lat;lon;timestamp;P1;durP1;ratioP1;P2;durP2;ratioP2
29516;SDS011;40993;50.594;8.664;2023-07-02T00:02:21;4.15;;;2.85;;
29516;SDS011;40993;50.594;8.664;2023-07-02T00:04:48;5.60;;;2.65;;
29516;SDS011;40993;50.594;8.664;2023-07-02T00:07:16;4.22;;;2.80;;
29516;SDS011;40993;50.594;8.664;2023-07-02T00:09:45;5.70;;;2.72;;
29516;SDS011;40993;50.594;8.664;2023-07-02T00:12:13;5.78;;;2.53;;
29516;SDS011;40993;50.594;8.664;2023-07-02T00:14:41;4.18;;;2.70;;
29516;SDS011;40993;50.594;8.664;2023-07-02T00:17:08;6.97;;;2.50;;
29516;SDS011;40993;50.594;8.664;2023-07-02T00:19:38;6.72;;;2.50;;
29516;SDS011;40993;50.594;8.664;2023-07-02T00:22:07;3.95;;;2.50;;
29516;SDS011;40993;50.594;8.664;2023-07-02T00:24:35;4.47;;;2.83;;
29516;SDS011;40993;50.594;8.664;2023-07-02T00:27:04;3.60;;;2.47;;
29516;SDS011;40993;50.594;8.664;2023-07-02T00:29:32;3.40;;;2.72;;
29516;SDS011;40993;50.594;8.664;2023-07-02T00:31:59;3.40;;;2.40;;
29516;SDS011;40993;50.594;8.664;2023-07-02T00:34:28;4.03;;;2.25;;
29516;SDS011;40993;50.594;8.664;2023-07-02T00:36:55;3.58;;;2.63;;
29516;SDS011;40993;50.594;8.664;2023-07-02T00:39:22;4.35;;;2.45;;
29516;SDS011;40993;50.594;8.664;2023-07-02T00:41:50;4.07;;;2.40;;
29516;SDS011;40993;50.594;8.664;2023-07-02T00:44:18;4.72;;;2.63;;
29516;SDS011;40993;50.594;8.664;2023-07-02T00:46:49;3.20;;;2.40;;
29516;SDS011;40993;50.594;8.664;2023-07-02T00:49:17;6.15;;;2.65;;
29516;SDS011;40993;50.594;8.664;2023-07-02T00:51:45;6.43;;;2.40;;
29516;SDS011;40993;50.594;8.664;2023-07-02T00:54:13;7.38;;;2.65;;
29516;SDS011;40993;50.594;8.664;2023-07-02T00:56:40;4.47;;;2.67;;
29516;SDS011;40993;50.594;8.664;2023-07-02T00:59:08;4.10;;;2.63;;
29516;SDS011;40993;50.594;8.664;2023-07-02T01:01:37;3.15;;;2.50;;
29516;SDS011;40993;50.594;8.664;2023-07-02T01:04:06;4.38;;;2.58;;
29516;SDS011;40993;50.594;8.664;2023-07-02T01:06:36;3.72;;;2.80;;
29516;SDS011;40993;50.594;8.664;2023-07-02T01:09:06;5.57;;;2.88;;
29516;SDS011;40993;50.594;8.664;2023-07-02T01:11:35;6.07;;;3.08;;
29516;SDS011;40993;50.594;8.664;2023-07-02T01:14:07;5.82;;;3.45;;
29516;SDS011;40993;50.594;8.664;2023-07-02T01:16:37;4.90;;;3.55;;
29516;SDS011;40993;50.594;8.664;2023-07-02T01:19:08;6.85;;;3.22;;
29516;SDS011;40993;50.594;8.664;2023-07-02T01:21:39;3.97;;;3.30;;
29516;SDS011;40993;50.594;8.664;2023-07-02T01:24:07;5.78;;;3.50;;
29516;SDS011;40993;50.594;8.664;2023-07-02T01:26:34;4.05;;;3.60;;
29516;SDS011;40993;50.594;8.664;2023-07-02T01:29:12;5.80;;;3.67;;
29516;SDS011;40993;50.594;8.664;2023-07-02T01:31:41;5.95;;;3.92;;
29516;SDS011;40993;50.594;8.664;2023-07-02T01:34:08;5.88;;;3.75;;
29516;SDS011;40993;50.594;8.664;2023-07-02T01:36:37;5.18;;;3.38;;
29516;SDS011;40993;50.594;8.664;2023-07-02T01:39:06;4.93;;;3.65;;
29516;SDS011;40993;50.594;8.664;2023-07-02T01:41:36;8.30;;;3.83;;
29516;SDS011;40993;50.594;8.664;2023-07-02T01:44:05;7.45;;;4.00;;
29516;SDS011;40993;50.594;8.664;2023-07-02T01:46:32;6.15;;;4.03;;
29516;SDS011;40993;50.594;8.664;2023-07-02T01:48:59;6.22;;;3.90;;
29516;SDS011;40993;50.594;8.664;2023-07-02T01:51:28;7.20;;;4.40;;
29516;SDS011;40993;50.594;8.664;2023-07-02T01:53:56;5.03;;;3.70;;
29516;SDS011;40993;50.594;8.664;2023-07-02T01:56:24;4.38;;;3.80;;
29516;SDS011;40993;50.594;8.664;2023-07-02T01:58:52;10.25;;;4.50;;
29516;SDS011;40993;50.594;8.664;2023-07-02T02:01:20;7.40;;;5.22;;
29516;SDS011;40993;50.594;8.664;2023-07-02T02:03:47;9.95;;;5.13;;
29516;SDS011;40993;50.594;8.664;2023-07-02T02:06:16;5.63;;;4.80;;
29516;SDS011;40993;50.594;8.664;2023-07-02T02:08:44;11.18;;;5.10;;
29516;SDS011;40993;50.594;8.664;2023-07-02T02:11:12;7.50;;;5.32;;
29516;SDS011;40993;50.594;8.664;2023-07-02T02:13:40;5.95;;;5.35;;
29516;SDS011;40993;50.594;8.664;2023-07-02T02:16:08;9.63;;;5.70;;
29516;SDS011;40993;50.594;8.664;2023-07-02T02:18:35;6.50;;;5.57;;
29516;SDS011;40993;50.594;8.664;2023-07-02T02:21:03;9.65;;;5.68;;
29516;SDS011;40993;50.594;8.664;2023-07-02T02:23:30;9.48;;;5.40;;
29516;SDS011;40993;50.594;8.664;2023-07-02T02:25:58;7.32;;;5.70;;
29516;SDS011;40993;50.594;8.664;2023-07-02T02:28:26;6.63;;;5.30;;
29516;SDS011;40993;50.594;8.664;2023-07-02T02:30:54;7.15;;;5.20;;
29516;SDS011;40993;50.594;8.664;2023-07-02T02:33:22;6.15;;;5.10;;
29516;SDS011;40993;50.594;8.664;2023-07-02T02:35:49;6.32;;;4.93;;
29516;SDS011;40993;50.594;8.664;2023-07-02T02:38:17;6.85;;;5.38;;
29516;SDS011;40993;50.594;8.664;2023-07-02T02:40:45;8.65;;;5.05;;
29516;SDS011;40993;50.594;8.664;2023-07-02T02:43:16;8.27;;;5.13;;
29516;SDS011;40993;50.594;8.664;2023-07-02T02:45:45;7.97;;;5.35;;
29516;SDS011;40993;50.594;8.664;2023-07-02T02:48:14;5.30;;;4.72;;
29516;SDS011;40993;50.594;8.664;2023-07-02T02:50:42;10.25;;;4.97;;
29516;SDS011;40993;50.594;8.664;2023-07-02T02:53:09;8.38;;;4.63;;
29516;SDS011;40993;50.594;8.664;2023-07-02T02:55:37;7.82;;;4.80;;
29516;SDS011;40993;50.594;8.664;2023-07-02T02:58:04;8.48;;;4.40;;
29516;SDS011;40993;50.594;8.664;2023-07-02T03:00:32;9.00;;;4.63;;
29516;SDS011;40993;50.594;8.664;2023-07-02T03:02:59;8.80;;;4.47;;
29516;SDS011;40993;50.594;8.664;2023-07-02T03:05:30;10.25;;;4.30;;
29516;SDS011;40993;50.594;8.664;2023-07-02T03:07:58;8.32;;;4.72;;
29516;SDS011;40993;50.594;8.664;2023-07-02T03:10:25;11.75;;;4.72;;
29516;SDS011;40993;50.594;8.664;2023-07-02T03:12:54;7.18;;;4.75;;
29516;SDS011;40993;50.594;8.664;2023-07-02T03:15:22;9.82;;;4.68;;
29516;SDS011;40993;50.594;8.664;2023-07-02T03:17:49;7.68;;;4.35;;
29516;SDS011;40993;50.594;8.664;2023-07-02T03:20:17;7.78;;;4.30;;
29516;SDS011;40993;50.594;8.664;2023-07-02T03:22:46;8.27;;;4.68;;
29516;SDS011;40993;50.594;8.664;2023-07-02T03:25:13;7.60;;;4.53;;
29516;SDS011;40993;50.594;8.664;2023-07-02T03:27:41;6.47;;;4.03;;
29516;SDS011;40993;50.594;8.664;2023-07-02T03:30:09;6.93;;;3.95;;
29516;SDS011;40993;50.594;8.664;2023-07-02T03:32:36;8.55;;;4.05;;
29516;SDS011;40993;50.594;8.664;2023-07-02T03:35:04;7.88;;;4.60;;
29516;SDS011;40993;50.594;8.664;2023-07-02T03:37:32;8.20;;;4.07;;
29516;SDS011;40993;50.594;8.664;2023-07-02T03:40:01;7.38;;;4.18;;
29516;SDS011;40993;50.594;8.664;2023-07-02T03:42:28;6.10;;;4.35;;
29516;SDS011;40993;50.594;8.664;2023-07-02T03:44:55;6.68;;;4.35;;
29516;SDS011;40993;50.594;8.664;2023-07-02T03:47:23;5.68;;;4.18;;
29516;SDS011;40993;50.594;8.664;2023-07-02T03:49:50;7.85;;;4.72;;
29516;SDS011;40993;50.594;8.664;2023-07-02T03:52:18;9.63;;;4.82;;
29516;SDS011;40993;50.594;8.664;2023-07-02T03:54:45;8.10;;;4.90;;
29516;SDS011;40993;50.594;8.664;2023-07-02T03:57:14;7.10;;;4.70;;
29516;SDS011;40993;50.594;8.664;2023-07-02T03:59:41;10.07;;;4.65;;
29516;SDS011;40993;50.594;8.664;2023-07-02T04:02:09;7.97;;;4.50;;
29516;SDS011;40993;50.594;8.664;2023-07-02T04:04:36;6.00;;;3.95;;
29516;SDS011;40993;50.594;8.664;2023-07-02T04:07:04;6.00;;;4.07;;
29516;SDS011;40993;50.594;8.664;2023-07-02T04:09:32;6.13;;;4.53;;
29516;SDS011;40993;50.594;8.664;2023-07-02T04:11:59;6.43;;;4.60;;
29516;SDS011;40993;50.594;8.664;2023-07-02T04:14:28;7.55;;;4.35;;
29516;SDS011;40993;50.594;8.664;2023-07-02T04:16:56;7.25;;;3.90;;
29516;SDS011;40993;50.594;8.664;2023-07-02T04:19:23;9.60;;;4.45;;
29516;SDS011;40993;50.594;8.664;2023-07-02T04:21:51;11.07;;;3.78;;
29516;SDS011;40993;50.594;8.664;2023-07-02T04:24:18;5.85;;;3.95;;
29516;SDS011;40993;50.594;8.664;2023-07-02T04:26:46;4.55;;;3.60;;
29516;SDS011;40993;50.594;8.664;2023-07-02T04:29:35;6.75;;;3.40;;
29516;SDS011;40993;50.594;8.664;2023-07-02T04:32:02;9.00;;;3.70;;
29516;SDS011;40993;50.594;8.664;2023-07-02T04:34:30;7.65;;;3.75;;
29516;SDS011;40993;50.594;8.664;2023-07-02T04:36:57;10.43;;;3.67;;
29516;SDS011;40993;50.594;8.664;2023-07-02T04:39:24;6.93;;;3.70;;
29516;SDS011;40993;50.594;8.664;2023-07-02T04:41:52;5.50;;;3.50;;
29516;SDS011;40993;50.594;8.664;2023-07-02T04:44:19;6.70;;;3.90;;
29516;SDS011;40993;50.594;8.664;2023-07-02T04:46:49;7.28;;;3.33;;
29516;SDS011;40993;50.594;8.664;2023-07-02T04:49:16;6.95;;;3.30;;
29516;SDS011;40993;50.594;8.664;2023-07-02T04:51:44;4.95;;;3.50;;
29516;SDS011;40993;50.594;8.664;2023-07-02T04:54:11;6.90;;;3.53;;
29516;SDS011;40993;50.594;8.664;2023-07-02T04:56:39;7.80;;;3.40;;
29516;SDS011;40993;50.594;8.664;2023-07-02T04:59:06;8.60;;;3.50;;
29516;SDS011;40993;50.594;8.664;2023-07-02T05:01:33;9.43;;;3.67;;
29516;SDS011;40993;50.594;8.664;2023-07-02T05:04:04;5.57;;;3.20;;
29516;SDS011;40993;50.594;8.664;2023-07-02T05:06:32;9.13;;;3.60;;
29516;SDS011;40993;50.594;8.664;2023-07-02T05:08:59;7.30;;;3.25;;
29516;SDS011;40993;50.594;8.664;2023-07-02T05:11:27;10.73;;;3.63;;
29516;SDS011;40993;50.594;8.664;2023-07-02T05:13:54;8.20;;;3.28;;
29516;SDS011;40993;50.594;8.664;2023-07-02T05:16:22;5.88;;;3.20;;
29516;SDS011;40993;50.594;8.664;2023-07-02T05:18:49;6.68;;;3.03;;
29516;SDS011;40993;50.594;8.664;2023-07-02T05:21:18;5.78;;;3.42;;
29516;SDS011;40993;50.594;8.664;2023-07-02T05:23:46;8.00;;;3.40;;
29516;SDS011;40993;50.594;8.664;2023-07-02T05:26:14;11.15;;;3.20;;
29516;SDS011;40993;50.594;8.664;2023-07-02T05:28:41;8.50;;;3.30;;
29516;SDS011;40993;50.594;8.664;2023-07-02T05:31:10;5.93;;;2.72;;
29516;SDS011;40993;50.594;8.664;2023-07-02T05:33:38;5.78;;;3.45;;
29516;SDS011;40993;50.594;8.664;2023-07-02T05:36:05;6.07;;;3.10;;
29516;SDS011;40993;50.594;8.664;2023-07-02T05:38:34;3.60;;;2.55;;
29516;SDS011;40993;50.594;8.664;2023-07-02T05:41:01;6.13;;;3.10;;
29516;SDS011;40993;50.594;8.664;2023-07-02T05:43:29;6.68;;;3.00;;
29516;SDS011;40993;50.594;8.664;2023-07-02T05:45:57;6.95;;;3.17;;
29516;SDS011;40993;50.594;8.664;2023-07-02T05:48:26;8.23;;;3.38;;
29516;SDS011;40993;50.594;8.664;2023-07-02T05:50:54;7.15;;;3.08;;
29516;SDS011;40993;50.594;8.664;2023-07-02T05:53:22;6.80;;;3.17;;
29516;SDS011;40993;50.594;8.664;2023-07-02T05:55:50;6.80;;;3.13;;
29516;SDS011;40993;50.594;8.664;2023-07-02T05:58:18;8.95;;;3.13;;
29516;SDS011;40993;50.594;8.664;2023-07-02T06:00:48;8.68;;;3.10;;
29516;SDS011;40993;50.594;8.664;2023-07-02T06:03:16;7.38;;;3.10;;
29516;SDS011;40993;50.594;8.664;2023-07-02T06:05:46;5.07;;;2.78;;
29516;SDS011;40993;50.594;8.664;2023-07-02T06:08:15;6.85;;;3.25;;
29516;SDS011;40993;50.594;8.664;2023-07-02T06:10:43;8.63;;;3.20;;
29516;SDS011;40993;50.594;8.664;2023-07-02T06:13:14;7.22;;;3.08;;
29516;SDS011;40993;50.594;8.664;2023-07-02T06:15:42;7.82;;;3.25;;
29516;SDS011;40993;50.594;8.664;2023-07-02T06:18:09;4.22;;;2.70;;
29516;SDS011;40993;50.594;8.664;2023-07-02T06:20:37;7.25;;;3.03;;
29516;SDS011;40993;50.594;8.664;2023-07-02T06:23:04;11.60;;;2.95;;
29516;SDS011;40993;50.594;8.664;2023-07-02T06:25:32;5.45;;;2.72;;
29516;SDS011;40993;50.594;8.664;2023-07-02T06:27:59;8.80;;;3.15;;
29516;SDS011;40993;50.594;8.664;2023-07-02T06:30:28;7.47;;;3.10;;
29516;SDS011;40993;50.594;8.664;2023-07-02T06:32:56;6.15;;;2.78;;
29516;SDS011;40993;50.594;8.664;2023-07-02T06:35:23;8.30;;;3.00;;
29516;SDS011;40993;50.594;8.664;2023-07-02T06:37:51;4.03;;;2.67;;
29516;SDS011;40993;50.594;8.664;2023-07-02T06:40:19;8.45;;;2.97;;
29516;SDS011;40993;50.594;8.664;2023-07-02T06:42:47;7.95;;;2.80;;
29516;SDS011;40993;50.594;8.664;2023-07-02T06:45:14;5.35;;;2.60;;
29516;SDS011;40993;50.594;8.664;2023-07-02T06:47:43;7.35;;;2.90;;
29516;SDS011;40993;50.594;8.664;2023-07-02T06:50:10;5.88;;;3.15;;
29516;SDS011;40993;50.594;8.664;2023-07-02T06:52:38;6.80;;;2.97;;
29516;SDS011;40993;50.594;8.664;2023-07-02T06:55:05;6.15;;;2.85;;
29516;SDS011;40993;50.594;8.664;2023-07-02T06:57:33;7.28;;;3.00;;
29516;SDS011;40993;50.594;8.664;2023-07-02T07:00:00;11.18;;;3.38;;
29516;SDS011;40993;50.594;8.664;2023-07-02T07:02:29;5.15;;;2.70;;
29516;SDS011;40993;50.594;8.664;2023-07-02T07:04:58;4.35;;;2.63;;
29516;SDS011;40993;50.594;8.664;2023-07-02T07:07:26;8.43;;;3.10;;
29516;SDS011;40993;50.594;8.664;2023-07-02T07:09:53;7.30;;;3.00;;
29516;SDS011;40993;50.594;8.664;2023-07-02T07:12:21;9.02;;;2.90;;
29516;SDS011;40993;50.594;8.664;2023-07-02T07:14:48;8.57;;;3.30;;
29516;SDS011;40993;50.594;8.664;2023-07-02T07:17:16;5.30;;;2.78;;
29516;SDS011;40993;50.594;8.664;2023-07-02T07:19:43;6.35;;;3.00;;
29516;SDS011;40993;50.594;8.664;2023-07-02T07:22:12;6.53;;;2.97;;
29516;SDS011;40993;50.594;8.664;2023-07-02T07:24:41;5.97;;;2.53;;
29516;SDS011;40993;50.594;8.664;2023-07-02T07:27:08;6.97;;;3.33;;
29516;SDS011;40993;50.594;8.664;2023-07-02T07:29:36;8.00;;;3.05;;
29516;SDS011;40993;50.594;8.664;2023-07-02T07:32:03;8.70;;;3.30;;
29516;SDS011;40993;50.594;8.664;2023-07-02T07:34:32;6.20;;;3.20;;
29516;SDS011;40993;50.594;8.664;2023-07-02T07:36:59;9.77;;;3.17;;
29516;SDS011;40993;50.594;8.664;2023-07-02T07:39:28;6.38;;;3.10;;
29516;SDS011;40993;50.594;8.664;2023-07-02T07:41:55;8.23;;;3.00;;
29516;SDS011;40993;50.594;8.664;2023-07-02T07:44:23;7.03;;;2.80;;
29516;SDS011;40993;50.594;8.664;2023-07-02T07:46:55;6.03;;;2.80;;
29516;SDS011;40993;50.594;8.664;2023-07-02T07:49:23;5.93;;;2.97;;
29516;SDS011;40993;50.594;8.664;2023-07-02T07:52:00;9.52;;;3.10;;
29516;SDS011;40993;50.594;8.664;2023-07-02T07:54:31;8.63;;;3.10;;
29516;SDS011;40993;50.594;8.664;2023-07-02T07:56:58;12.50;;;3.33;;
29516;SDS011;40993;50.594;8.664;2023-07-02T07:59:25;6.15;;;2.97;;
29516;SDS011;40993;50.594;8.664;2023-07-02T08:01:53;5.65;;;3.20;;
29516;SDS011;40993;50.594;8.664;2023-07-02T08:04:20;6.30;;;2.70;;
29516;SDS011;40993;50.594;8.664;2023-07-02T08:06:48;9.15;;;3.15;;
29516;SDS011;40993;50.594;8.664;2023-07-02T08:09:15;5.13;;;3.08;;
29516;SDS011;40993;50.594;8.664;2023-07-02T08:11:44;7.30;;;3.10;;
29516;SDS011;40993;50.594;8.664;2023-07-02T08:14:12;7.45;;;2.70;;
29516;SDS011;40993;50.594;8.664;2023-07-02T08:16:40;6.63;;;3.10;;
29516;SDS011;40993;50.594;8.664;2023-07-02T08:19:07;5.07;;;2.92;;
29516;SDS011;40993;50.594;8.664;2023-07-02T08:21:35;6.38;;;3.03;;
29516;SDS011;40993;50.594;8.664;2023-07-02T08:24:02;6.25;;;3.15;;
29516;SDS011;40993;50.594;8.664;2023-07-02T08:26:30;4.93;;;2.92;;
29516;SDS011;40993;50.594;8.664;2023-07-02T08:28:59;5.50;;;3.00;;
29516;SDS011;40993;50.594;8.664;2023-07-02T08:31:26;8.65;;;2.95;;
29516;SDS011;40993;50.594;8.664;2023-07-02T08:33:54;5.78;;;3.10;;
29516;SDS011;40993;50.594;8.664;2023-07-02T08:36:21;8.45;;;3.10;;
29516;SDS011;40993;50.594;8.664;2023-07-02T08:38:49;8.98;;;3.55;;
29516;SDS011;40993;50.594;8.664;2023-07-02T08:41:16;10.20;;;3.78;;
29516;SDS011;40993;50.594;8.664;2023-07-02T08:43:44;8.90;;;3.50;;
29516;SDS011;40993;50.594;8.664;2023-07-02T08:46:13;7.53;;;3.83;;
29516;SDS011;40993;50.594;8.664;2023-07-02T08:48:42;12.27;;;4.20;;
29516;SDS011;40993;50.594;8.664;2023-07-02T08:51:09;9.18;;;4.20;;
29516;SDS011;40993;50.594;8.664;2023-07-02T08:53:37;10.90;;;4.82;;
29516;SDS011;40993;50.594;8.664;2023-07-02T08:56:04;9.98;;;4.82;;
29516;SDS011;40993;50.594;8.664;2023-07-02T08:58:32;9.00;;;4.75;;
29516;SDS011;40993;50.594;8.664;2023-07-02T09:01:06;10.13;;;4.90;;
29516;SDS011;40993;50.594;8.664;2023-07-02T09:03:36;10.18;;;4.32;;
29516;SDS011;40993;50.594;8.664;2023-07-02T09:06:04;9.00;;;4.40;;
29516;SDS011;40993;50.594;8.664;2023-07-02T09:08:32;9.40;;;4.30;;
29516;SDS011;40993;50.594;8.664;2023-07-02T09:11:10;10.98;;;4.90;;
29516;SDS011;40993;50.594;8.664;2023-07-02T09:13:42;12.88;;;4.85;;
29516;SDS011;40993;50.594;8.664;2023-07-02T09:16:20;11.68;;;5.45;;
29516;SDS011;40993;50.594;8.664;2023-07-02T09:19:00;10.30;;;5.00;;
29516;SDS011;40993;50.594;8.664;2023-07-02T09:21:37;9.20;;;5.10;;
29516;SDS011;40993;50.594;8.664;2023-07-02T09:24:11;11.50;;;5.20;;
29516;SDS011;40993;50.594;8.664;2023-07-02T09:26:41;13.75;;;5.30;;
29516;SDS011;40993;50.594;8.664;2023-07-02T09:29:10;11.23;;;5.28;;
29516;SDS011;40993;50.594;8.664;2023-07-02T09:31:44;12.30;;;5.32;;
29516;SDS011;40993;50.594;8.664;2023-07-02T09:34:30;8.25;;;4.85;;
29516;SDS011;40993;50.594;8.664;2023-07-02T09:37:00;10.05;;;4.57;;
29516;SDS011;40993;50.594;8.664;2023-07-02T09:39:29;9.95;;;4.80;;
29516;SDS011;40993;50.594;8.664;2023-07-02T09:41:58;10.57;;;5.22;;
29516;SDS011;40993;50.594;8.664;2023-07-02T09:44:27;9.88;;;5.05;;
29516;SDS011;40993;50.594;8.664;2023-07-02T09:46:58;9.32;;;5.00;;
29516;SDS011;40993;50.594;8.664;2023-07-02T09:49:31;9.15;;;4.88;;
29516;SDS011;40993;50.594;8.664;2023-07-02T09:51:59;8.40;;;4.97;;
29516;SDS011;40993;50.594;8.664;2023-07-02T09:54:26;7.57;;;4.50;;
29516;SDS011;40993;50.594;8.664;2023-07-02T09:56:54;10.35;;;4.65;;
29516;SDS011;40993;50.594;8.664;2023-07-02T09:59:22;7.28;;;4.45;;
29516;SDS011;40993;50.594;8.664;2023-07-02T10:01:50;12.05;;;5.18;;
29516;SDS011;40993;50.594;8.664;2023-07-02T10:04:18;11.68;;;5.55;;
29516;SDS011;40993;50.594;8.664;2023-07-02T10:06:48;13.95;;;5.38;;
29516;SDS011;40993;50.594;8.664;2023-07-02T10:09:17;12.48;;;5.63;;
29516;SDS011;40993;50.594;8.664;2023-07-02T10:11:45;13.55;;;5.72;;
29516;SDS011;40993;50.594;8.664;2023-07-02T10:14:13;11.18;;;5.05;;
29516;SDS011;40993;50.594;8.664;2023-07-02T10:16:48;11.25;;;5.82;;
29516;SDS011;40993;50.594;8.664;2023-07-02T10:19:16;13.32;;;6.13;;
29516;SDS011;40993;50.594;8.664;2023-07-02T10:21:44;16.10;;;5.93;;
29516;SDS011;40993;50.594;8.664;2023-07-02T10:24:14;10.77;;;5.68;;
29516;SDS011;40993;50.594;8.664;2023-07-02T10:26:52;15.27;;;5.43;;
29516;SDS011;40993;50.594;8.664;2023-07-02T10:29:21;14.30;;;6.40;;
29516;SDS011;40993;50.594;8.664;2023-07-02T10:31:49;12.73;;;6.20;;
29516;SDS011;40993;50.594;8.664;2023-07-02T10:34:27;14.20;;;5.72;;
29516;SDS011;40993;50.594;8.664;2023-07-02T10:36:59;13.82;;;6.65;;
29516;SDS011;40993;50.594;8.664;2023-07-02T10:39:28;12.73;;;5.97;;
29516;SDS011;40993;50.594;8.664;2023-07-02T10:42:03;12.15;;;5.40;;
29516;SDS011;40993;50.594;8.664;2023-07-02T10:44:31;10.98;;;6.07;;
29516;SDS011;40993;50.594;8.664;2023-07-02T10:46:59;11.60;;;5.70;;
29516;SDS011;40993;50.594;8.664;2023-07-02T10:49:30;12.20;;;6.50;;
29516;SDS011;40993;50.594;8.664;2023-07-02T10:51:58;14.98;;;6.40;;
29516;SDS011;40993;50.594;8.664;2023-07-02T10:54:26;14.48;;;6.43;;
29516;SDS011;40993;50.594;8.664;2023-07-02T10:56:57;19.05;;;6.88;;
29516;SDS011;40993;50.594;8.664;2023-07-02T10:59:25;15.45;;;6.80;;
29516;SDS011;40993;50.594;8.664;2023-07-02T11:01:52;14.30;;;6.40;;
29516;SDS011;40993;50.594;8.664;2023-07-02T11:04:22;12.75;;;6.68;;
29516;SDS011;40993;50.594;8.664;2023-07-02T11:06:50;12.43;;;6.60;;
29516;SDS011;40993;50.594;8.664;2023-07-02T11:09:17;15.02;;;7.03;;
29516;SDS011;40993;50.594;8.664;2023-07-02T11:11:50;15.80;;;6.65;;
29516;SDS011;40993;50.594;8.664;2023-07-02T11:14:30;13.03;;;6.70;;
29516;SDS011;40993;50.594;8.664;2023-07-02T11:16:59;15.60;;;6.80;;
29516;SDS011;40993;50.594;8.664;2023-07-02T11:19:28;13.85;;;7.05;;
29516;SDS011;40993;50.594;8.664;2023-07-02T11:21:57;17.70;;;8.93;;
29516;SDS011;40993;50.594;8.664;2023-07-02T11:24:29;26.52;;;15.13;;
29516;SDS011;40993;50.594;8.664;2023-07-02T11:26:58;21.95;;;6.90;;
29516;SDS011;40993;50.594;8.664;2023-07-02T11:29:27;19.83;;;7.72;;
29516;SDS011;40993;50.594;8.664;2023-07-02T11:32:04;14.80;;;6.78;;
29516;SDS011;40993;50.594;8.664;2023-07-02T11:34:31;15.52;;;7.22;;
29516;SDS011;40993;50.594;8.664;2023-07-02T11:36:59;18.17;;;7.50;;
29516;SDS011;40993;50.594;8.664;2023-07-02T11:39:26;17.27;;;7.68;;
29516;SDS011;40993;50.594;8.664;2023-07-02T11:41:54;16.65;;;7.07;;
29516;SDS011;40993;50.594;8.664;2023-07-02T11:44:21;18.02;;;7.60;;
29516;SDS011;40993;50.594;8.664;2023-07-02T11:46:50;20.45;;;8.13;;
29516;SDS011;40993;50.594;8.664;2023-07-02T11:49:19;17.98;;;7.75;;
29516;SDS011;40993;50.594;8.664;2023-07-02T11:51:46;21.23;;;8.02;;
29516;SDS011;40993;50.594;8.664;2023-07-02T11:54:15;19.90;;;7.90;;
29516;SDS011;40993;50.594;8.664;2023-07-02T11:56:45;20.60;;;7.75;;
29516;SDS011;40993;50.594;8.664;2023-07-02T11:59:12;16.50;;;7.32;;
29516;SDS011;40993;50.594;8.664;2023-07-02T12:01:40;17.65;;;7.72;;
29516;SDS011;40993;50.594;8.664;2023-07-02T12:04:10;23.05;;;7.85;;
29516;SDS011;40993;50.594;8.664;2023-07-02T12:06:38;15.32;;;7.28;;
29516;SDS011;40993;50.594;8.664;2023-07-02T12:09:06;23.33;;;8.68;;
29516;SDS011;40993;50.594;8.664;2023-07-02T12:11:33;26.73;;;8.00;;
29516;SDS011;40993;50.594;8.664;2023-07-02T12:14:00;15.80;;;7.50;;
29516;SDS011;40993;50.594;8.664;2023-07-02T12:16:28;18.48;;;8.15;;
29516;SDS011;40993;50.594;8.664;2023-07-02T12:18:55;22.88;;;8.57;;
29516;SDS011;40993;50.594;8.664;2023-07-02T12:21:24;17.10;;;7.95;;
29516;SDS011;40993;50.594;8.664;2023-07-02T12:23:51;16.63;;;8.40;;
29516;SDS011;40993;50.594;8.664;2023-07-02T12:26:19;17.00;;;8.35;;
29516;SDS011;40993;50.594;8.664;2023-07-02T12:28:46;16.48;;;8.45;;
29516;SDS011;40993;50.594;8.664;2023-07-02T12:31:14;17.88;;;8.10;;
29516;SDS011;40993;50.594;8.664;2023-07-02T12:33:42;19.48;;;8.27;;
29516;SDS011;40993;50.594;8.664;2023-07-02T12:36:09;17.55;;;8.50;;
29516;SDS011;40993;50.594;8.664;2023-07-02T12:38:38;20.17;;;8.10;;
29516;SDS011;40993;50.594;8.664;2023-07-02T12:41:05;25.02;;;9.35;;
29516;SDS011;40993;50.594;8.664;2023-07-02T12:43:32;20.58;;;8.30;;
29516;SDS011;40993;50.594;8.664;2023-07-02T12:46:00;22.33;;;8.13;;
29516;SDS011;40993;50.594;8.664;2023-07-02T12:48:27;18.67;;;8.48;;
29516;SDS011;40993;50.594;8.664;2023-07-02T12:50:55;18.02;;;8.50;;
29516;SDS011;40993;50.594;8.664;2023-07-02T12:53:23;22.30;;;8.45;;
29516;SDS011;40993;50.594;8.664;2023-07-02T12:55:52;17.35;;;8.05;;
29516;SDS011;40993;50.594;8.664;2023-07-02T12:58:20;18.52;;;8.05;;
29516;SDS011;40993;50.594;8.664;2023-07-02T13:00:48;23.90;;;8.32;;
29516;SDS011;40993;50.594;8.664;2023-07-02T13:03:16;28.33;;;9.68;;
29516;SDS011;40993;50.594;8.664;2023-07-02T13:05:47;19.13;;;8.38;;
29516;SDS011;40993;50.594;8.664;2023-07-02T13:08:15;20.02;;;7.88;;
29516;SDS011;40993;50.594;8.664;2023-07-02T13:10:42;21.40;;;8.27;;
29516;SDS011;40993;50.594;8.664;2023-07-02T13:13:11;18.42;;;8.30;;
29516;SDS011;40993;50.594;8.664;2023-07-02T13:15:48;20.25;;;8.60;;
29516;SDS011;40993;50.594;8.664;2023-07-02T13:18:16;21.00;;;8.70;;
29516;SDS011;40993;50.594;8.664;2023-07-02T13:20:44;20.70;;;7.78;;
29516;SDS011;40993;50.594;8.664;2023-07-02T13:23:11;18.25;;;7.80;;
29516;SDS011;40993;50.594;8.664;2023-07-02T13:25:39;21.27;;;8.50;;
29516;SDS011;40993;50.594;8.664;2023-07-02T13:28:06;17.70;;;8.65;;
29516;SDS011;40993;50.594;8.664;2023-07-02T13:30:35;19.48;;;8.23;;
29516;SDS011;40993;50.594;8.664;2023-07-02T13:33:02;16.02;;;8.13;;
29516;SDS011;40993;50.594;8.664;2023-07-02T13:35:30;19.38;;;8.35;;
29516;SDS011;40993;50.594;8.664;2023-07-02T13:37:58;20.92;;;8.40;;
29516;SDS011;40993;50.594;8.664;2023-07-02T13:40:25;24.85;;;8.48;;
29516;SDS011;40993;50.594;8.664;2023-07-02T13:42:53;17.67;;;8.13;;
29516;SDS011;40993;50.594;8.664;2023-07-02T13:45:22;27.38;;;7.90;;
29516;SDS011;40993;50.594;8.664;2023-07-02T13:47:50;17.92;;;7.90;;
29516;SDS011;40993;50.594;8.664;2023-07-02T13:50:18;18.45;;;8.60;;
29516;SDS011;40993;50.594;8.664;2023-07-02T13:52:45;23.05;;;8.65;;
29516;SDS011;40993;50.594;8.664;2023-07-02T13:55:14;36.13;;;8.77;;
29516;SDS011;40993;50.594;8.664;2023-07-02T13:57:42;15.68;;;7.43;;
29516;SDS011;40993;50.594;8.664;2023-07-02T14:00:11;17.52;;;8.38;;
29516;SDS011;40993;50.594;8.664;2023-07-02T14:02:39;19.02;;;8.35;;
29516;SDS011;40993;50.594;8.664;2023-07-02T14:05:07;25.35;;;8.07;;
29516;SDS011;40993;50.594;8.664;2023-07-02T14:07:35;18.98;;;7.82;;
29516;SDS011;40993;50.594;8.664;2023-07-02T14:10:02;22.42;;;7.50;;
29516;SDS011;40993;50.594;8.664;2023-07-02T14:12:30;24.17;;;8.00;;
29516;SDS011;40993;50.594;8.664;2023-07-02T14:14:58;22.50;;;8.43;;
29516;SDS011;40993;50.594;8.664;2023-07-02T14:17:27;24.42;;;8.38;;
29516;SDS011;40993;50.594;8.664;2023-07-02T14:19:57;15.60;;;7.45;;
29516;SDS011;40993;50.594;8.664;2023-07-02T14:22:27;13.52;;;7.03;;
29516;SDS011;40993;50.594;8.664;2023-07-02T14:24:55;20.23;;;8.50;;
29516;SDS011;40993;50.594;8.664;2023-07-02T14:27:22;19.38;;;8.20;;
29516;SDS011;40993;50.594;8.664;2023-07-02T14:29:50;19.60;;;8.18;;
29516;SDS011;40993;50.594;8.664;2023-07-02T14:32:17;19.55;;;7.75;;
29516;SDS011;40993;50.594;8.664;2023-07-02T14:34:46;16.65;;;7.70;;
29516;SDS011;40993;50.594;8.664;2023-07-02T14:37:14;20.05;;;8.20;;
29516;SDS011;40993;50.594;8.664;2023-07-02T14:39:41;17.80;;;8.00;;
29516;SDS011;40993;50.594;8.664;2023-07-02T14:42:26;21.08;;;7.72;;
29516;SDS011;40993;50.594;8.664;2023-07-02T14:44:54;20.70;;;9.63;;
29516;SDS011;40993;50.594;8.664;2023-07-02T14:47:21;18.25;;;8.05;;
29516;SDS011;40993;50.594;8.664;2023-07-02T14:49:50;19.05;;;9.63;;
29516;SDS011;40993;50.594;8.664;2023-07-02T14:52:18;19.23;;;7.85;;